createdAt,value
2022-08-11T00:02:36.171Z,2.50
2022-08-11T00:05:08.219Z,2.33
2022-08-11T00:07:44.986Z,2.30
2022-08-11T00:10:18.000Z,2.47
2022-08-11T00:12:53.426Z,2.60
2022-08-11T00:15:23.943Z,2.50
2022-08-11T00:17:58.678Z,2.40
2022-08-11T00:20:32.610Z,2.67
2022-08-11T00:23:05.567Z,2.47
2022-08-11T00:25:40.917Z,2.50
2022-08-11T00:28:24.979Z,2.73
2022-08-11T00:30:58.609Z,2.60
2022-08-11T00:33:44.420Z,2.70
2022-08-11T00:36:20.859Z,2.20
2022-08-11T00:38:55.325Z,2.40
2022-08-11T00:41:34.304Z,2.50
2022-08-11T00:44:38.032Z,2.37
2022-08-11T00:47:20.655Z,2.47
2022-08-11T00:50:02.577Z,2.40
2022-08-11T00:53:00.307Z,2.40
2022-08-11T00:56:07.032Z,2.43
2022-08-11T00:59:13.251Z,2.50
2022-08-11T01:02:13.919Z,2.60
2022-08-11T01:05:17.769Z,2.50
2022-08-11T01:08:31.826Z,2.70
2022-08-11T01:11:39.536Z,2.70
2022-08-11T01:15:09.906Z,2.77
2022-08-11T01:18:08.542Z,2.70
2022-08-11T01:21:16.793Z,2.80
2022-08-11T01:24:28.603Z,2.70
2022-08-11T01:27:22.751Z,2.80
2022-08-11T01:30:21.543Z,2.63
2022-08-11T01:33:38.612Z,2.67
2022-08-11T01:36:43.751Z,3.10
2022-08-11T01:39:48.682Z,2.73
2022-08-11T01:43:28.475Z,2.97
2022-08-11T01:46:03.197Z,2.70
2022-08-11T01:48:42.334Z,2.90
2022-08-11T01:51:21.009Z,2.87
2022-08-11T01:53:57.351Z,2.90
2022-08-11T01:56:39.402Z,3.07
2022-08-11T01:59:17.206Z,3.10
2022-08-11T02:02:04.482Z,3.00
2022-08-11T02:04:37.520Z,2.90
2022-08-11T02:07:14.730Z,3.27
2022-08-11T02:09:55.464Z,2.90
2022-08-11T02:12:43.796Z,3.00
2022-08-11T02:15:34.589Z,3.00
2022-08-11T02:18:09.347Z,2.93
2022-08-11T02:21:03.890Z,2.90
2022-08-11T02:24:05.788Z,2.87
2022-08-11T02:26:40.621Z,3.20
2022-08-11T02:29:18.084Z,3.03
2022-08-11T02:32:28.741Z,3.20
2022-08-11T02:35:11.189Z,3.20
2022-08-11T02:37:49.650Z,3.10
2022-08-11T02:40:26.041Z,3.30
2022-08-11T02:43:06.944Z,3.27
2022-08-11T02:45:46.319Z,3.30
2022-08-11T02:48:55.956Z,3.30
2022-08-11T02:51:32.575Z,3.30
2022-08-11T02:54:09.951Z,3.10
2022-08-11T02:56:55.999Z,3.13
2022-08-11T02:59:53.506Z,2.90
2022-08-11T03:02:48.382Z,4.60
2022-08-11T03:05:28.287Z,3.30
2022-08-11T03:08:14.478Z,3.30
2022-08-11T03:11:09.428Z,3.20
2022-08-11T03:14:00.596Z,3.70
2022-08-11T03:16:48.368Z,3.63
2022-08-11T03:19:25.815Z,3.57
2022-08-11T03:22:06.412Z,3.57
2022-08-11T03:24:50.658Z,3.70
2022-08-11T03:27:34.199Z,3.90
2022-08-11T03:30:14.745Z,3.67
2022-08-11T03:33:25.418Z,3.40
2022-08-11T03:36:09.303Z,3.50
2022-08-11T03:38:50.090Z,3.90
2022-08-11T03:42:02.169Z,3.73
2022-08-11T03:44:42.335Z,4.20
2022-08-11T03:47:24.025Z,4.00
2022-08-11T03:50:07.127Z,3.90
2022-08-11T03:53:03.761Z,4.47
2022-08-11T03:55:56.005Z,4.10
2022-08-11T03:58:51.131Z,4.67
2022-08-11T04:01:49.441Z,4.47
2022-08-11T04:04:54.802Z,4.60
2022-08-11T04:08:11.113Z,4.67
2022-08-11T04:11:13.616Z,4.50
2022-08-11T04:14:19.755Z,4.90
2022-08-11T04:16:54.368Z,4.47
2022-08-11T04:20:02.859Z,4.33
2022-08-11T04:23:03.466Z,4.83
2022-08-11T04:25:58.922Z,4.37
2022-08-11T04:29:00.308Z,4.50
2022-08-11T04:31:50.518Z,4.57
2022-08-11T04:34:57.161Z,4.50
2022-08-11T04:38:00.567Z,4.80
2022-08-11T04:40:56.048Z,4.90
2022-08-11T04:44:07.541Z,4.90
2022-08-11T04:46:59.357Z,5.60
2022-08-11T04:50:19.452Z,7.47
2022-08-11T04:53:32.119Z,7.00
2022-08-11T04:56:26.843Z,6.63
2022-08-11T04:59:48.134Z,5.87
2022-08-11T05:02:51.190Z,4.90
2022-08-11T05:05:33.202Z,4.53
2022-08-11T05:08:49.723Z,4.70
2022-08-11T05:11:45.168Z,4.90
2022-08-11T05:14:49.277Z,4.70
2022-08-11T05:17:42.704Z,5.07
2022-08-11T05:20:31.920Z,5.87
2022-08-11T05:23:24.365Z,5.20
2022-08-11T05:26:44.065Z,4.83
2022-08-11T05:29:23.977Z,4.20
2022-08-11T05:32:17.542Z,4.40
2022-08-11T05:34:53.227Z,4.40
2022-08-11T05:37:33.294Z,4.23
2022-08-11T05:40:26.143Z,4.23
2022-08-11T05:43:16.309Z,4.57
2022-08-11T05:46:06.195Z,4.20
2022-08-11T05:48:55.874Z,4.27
2022-08-11T05:51:55.138Z,4.27
2022-08-11T05:54:46.786Z,4.33
2022-08-11T05:57:42.377Z,4.07
2022-08-11T06:00:12.635Z,4.00
2022-08-11T06:02:45.506Z,4.23
2022-08-11T06:05:14.461Z,4.30
2022-08-11T06:07:49.254Z,4.07
2022-08-11T06:10:34.420Z,4.50
2022-08-11T06:13:03.782Z,3.83
2022-08-11T06:15:35.794Z,4.20
2022-08-11T06:18:05.181Z,4.20
2022-08-11T06:20:37.602Z,4.30
2022-08-11T06:23:08.854Z,4.10
2022-08-11T06:25:39.437Z,4.07
2022-08-11T06:28:09.456Z,4.00
2022-08-11T06:30:42.064Z,4.30
2022-08-11T06:33:12.672Z,3.90
2022-08-11T06:35:50.159Z,3.50
2022-08-11T06:38:31.569Z,3.60
2022-08-11T06:41:23.776Z,3.60
2022-08-11T06:43:56.432Z,3.70
2022-08-11T06:46:29.653Z,3.37
2022-08-11T06:48:59.843Z,3.70
2022-08-11T06:51:32.592Z,3.50
2022-08-11T06:54:05.578Z,3.60
2022-08-11T06:57:26.432Z,4.00
2022-08-11T07:00:04.126Z,3.60
2022-08-11T07:02:35.466Z,3.80
2022-08-11T07:05:09.409Z,3.17
2022-08-11T07:08:37.384Z,3.67
2022-08-11T07:11:45.850Z,3.50
2022-08-11T07:14:38.725Z,3.77
2022-08-11T07:17:12.379Z,3.53
2022-08-11T07:20:13.349Z,3.50
2022-08-11T07:23:02.508Z,3.50
2022-08-11T07:25:51.443Z,3.63
2022-08-11T07:28:42.788Z,3.20
2022-08-11T07:31:15.520Z,3.20
2022-08-11T07:34:07.071Z,3.70
2022-08-11T07:36:41.072Z,3.97
2022-08-11T07:39:16.749Z,3.27
2022-08-11T07:41:46.442Z,3.40
2022-08-11T07:44:17.569Z,3.33
2022-08-11T07:47:07.607Z,3.20
2022-08-11T07:49:56.129Z,2.90
2022-08-11T07:52:30.510Z,3.30
2022-08-11T07:55:01.692Z,3.03
2022-08-11T07:58:14.574Z,3.10
2022-08-11T08:01:01.122Z,3.00
2022-08-11T08:03:54.032Z,3.20
2022-08-11T08:06:41.155Z,3.00
2022-08-11T08:09:28.456Z,3.08
2022-08-11T08:12:14.895Z,3.22
2022-08-11T08:15:01.550Z,2.90
2022-08-11T08:18:10.046Z,2.58
2022-08-11T08:20:46.716Z,2.85
2022-08-11T08:23:16.035Z,3.30
2022-08-11T08:25:46.862Z,3.08
2022-08-11T08:28:18.023Z,2.80
2022-08-11T08:30:49.914Z,2.80
2022-08-11T08:33:22.249Z,3.20
2022-08-11T08:36:11.846Z,3.22
2022-08-11T08:38:48.675Z,2.63
2022-08-11T08:41:21.486Z,2.50
2022-08-11T08:43:55.822Z,2.58
2022-08-11T08:46:31.829Z,2.20
2022-08-11T08:49:02.942Z,2.88
2022-08-11T08:52:31.761Z,3.08
2022-08-11T08:54:31.031Z,2.63
2022-08-11T08:57:05.396Z,2.58
2022-08-11T08:59:48.481Z,2.78
2022-08-11T09:02:34.274Z,2.60
2022-08-11T09:05:05.377Z,2.55
2022-08-11T09:07:38.999Z,2.70
2022-08-11T09:10:10.973Z,2.40
2022-08-11T09:12:42.734Z,2.47
2022-08-11T09:15:12.909Z,2.47
2022-08-11T09:17:47.497Z,2.50
2022-08-11T09:20:23.954Z,2.10
2022-08-11T09:26:22.279Z,2.10
2022-08-11T09:29:00.303Z,2.05
2022-08-11T09:31:39.421Z,2.00
2022-08-11T09:34:09.604Z,2.00
2022-08-11T09:36:57.934Z,2.33
2022-08-11T09:39:46.610Z,2.20
2022-08-11T09:42:16.297Z,2.40
2022-08-11T09:44:53.045Z,2.33
2022-08-11T09:47:24.598Z,2.20
2022-08-11T09:50:00.571Z,2.38
2022-08-11T09:52:33.369Z,2.13
2022-08-11T09:55:06.353Z,2.03
2022-08-11T09:57:55.102Z,2.03
2022-08-11T10:00:31.148Z,2.03
2022-08-11T10:03:01.769Z,2.00
2022-08-11T10:05:49.410Z,1.90
2022-08-11T10:08:20.281Z,1.88
2022-08-11T10:10:51.289Z,2.30
2022-08-11T10:14:32.218Z,1.98
2022-08-11T10:16:16.771Z,2.00
2022-08-11T10:18:53.386Z,1.83
2022-08-11T10:21:30.483Z,2.20
2022-08-11T10:24:19.478Z,2.05
2022-08-11T10:26:54.380Z,2.00
2022-08-11T10:29:45.198Z,1.73
2022-08-11T10:32:49.369Z,2.20
2022-08-11T10:35:28.936Z,1.90
2022-08-11T10:38:08.222Z,2.10
2022-08-11T10:41:11.031Z,2.00
2022-08-11T10:44:01.258Z,2.10
2022-08-11T10:46:47.978Z,1.80
2022-08-11T10:49:17.171Z,1.88
2022-08-11T10:52:03.978Z,1.90
2022-08-11T10:54:52.397Z,2.15
2022-08-11T10:57:39.337Z,1.85
2022-08-11T11:00:15.248Z,1.88
2022-08-11T11:02:44.550Z,1.90
2022-08-11T11:05:33.947Z,1.92
2022-08-11T11:08:30.914Z,2.17
2022-08-11T11:11:01.072Z,1.80
2022-08-11T11:13:53.298Z,1.80
2022-08-11T11:16:44.376Z,1.70
2022-08-11T11:19:20.840Z,2.00
2022-08-11T11:21:52.727Z,1.70
2022-08-11T11:24:37.540Z,1.60
2022-08-11T11:27:15.971Z,1.50
2022-08-11T11:30:03.562Z,1.52
2022-08-11T11:32:46.489Z,1.58
2022-08-11T11:35:32.040Z,1.42
2022-08-11T11:38:05.008Z,1.70
2022-08-11T11:40:35.066Z,1.40
2022-08-11T11:43:03.976Z,1.48
2022-08-11T11:45:33.166Z,1.80
2022-08-11T11:48:03.950Z,1.30
2022-08-11T11:50:35.627Z,1.70
2022-08-11T11:53:07.278Z,1.50
2022-08-11T11:55:37.203Z,1.60
2022-08-11T11:58:24.593Z,1.50
2022-08-11T12:01:12.768Z,1.58
2022-08-11T12:03:44.956Z,1.30
2022-08-11T12:06:14.968Z,1.40
2022-08-11T12:08:44.931Z,1.50
2022-08-11T12:11:32.246Z,1.30
2022-08-11T12:14:10.427Z,1.40
2022-08-11T12:16:42.536Z,1.60
2022-08-11T12:19:16.371Z,1.30
2022-08-11T12:22:00.971Z,1.50
2022-08-11T12:24:48.819Z,1.40
2022-08-11T12:27:25.413Z,1.50
2022-08-11T12:29:57.362Z,1.45
2022-08-11T12:32:30.228Z,1.50
2022-08-11T12:35:01.588Z,1.63
2022-08-11T12:37:33.997Z,1.50
2022-08-11T12:40:49.875Z,1.30
2022-08-11T12:43:38.005Z,1.48
2022-08-11T12:46:11.201Z,1.60
2022-08-11T12:49:04.168Z,1.35
2022-08-11T12:52:13.120Z,1.35
2022-08-11T12:54:51.876Z,1.45
2022-08-11T12:57:44.524Z,1.60
2022-08-11T13:00:32.037Z,1.40
2022-08-11T13:03:18.635Z,1.33
2022-08-11T13:05:49.867Z,1.35
2022-08-11T13:08:21.699Z,1.60
2022-08-11T13:11:09.959Z,1.48
2022-08-11T13:13:53.993Z,1.40
2022-08-11T13:16:26.417Z,1.60
2022-08-11T13:18:55.589Z,1.52
2022-08-11T13:21:24.975Z,1.55
2022-08-11T13:24:01.629Z,1.58
2022-08-11T13:26:47.339Z,1.30
2022-08-11T13:29:23.533Z,1.60
2022-08-11T13:31:53.820Z,1.40
2022-08-11T13:34:24.616Z,1.20
2022-08-11T13:36:56.093Z,1.30
2022-08-11T13:39:30.808Z,1.50
2022-08-11T13:42:01.785Z,1.30
2022-08-11T13:44:32.260Z,1.50
2022-08-11T13:47:04.348Z,1.50
2022-08-11T13:49:39.694Z,1.52
2022-08-11T13:52:13.996Z,1.30
2022-08-11T13:54:46.211Z,1.35
2022-08-11T13:58:06.674Z,1.30
2022-08-11T14:00:24.916Z,1.50
2022-08-11T14:02:58.214Z,1.27
2022-08-11T14:05:29.311Z,1.40
2022-08-11T14:08:02.377Z,1.77
2022-08-11T14:10:35.061Z,1.58
2022-08-11T14:13:29.197Z,1.50
2022-08-11T14:16:19.727Z,1.25
2022-08-11T14:18:53.496Z,1.30
2022-08-11T14:21:41.946Z,1.52
2022-08-11T14:24:12.958Z,1.40
2022-08-11T14:26:44.316Z,1.60
2022-08-11T14:29:15.147Z,1.45
2022-08-11T14:31:47.082Z,1.50
2022-08-11T14:34:16.452Z,1.50
2022-08-11T14:36:48.323Z,1.30
2022-08-11T14:39:19.535Z,1.40
2022-08-11T14:42:13.220Z,1.50
2022-08-11T14:45:05.190Z,1.40
2022-08-11T14:47:36.476Z,1.30
2022-08-11T14:50:11.567Z,1.48
2022-08-11T14:52:52.814Z,1.52
2022-08-11T14:55:41.399Z,1.50
2022-08-11T14:58:12.826Z,1.42
2022-08-11T15:00:43.433Z,1.50
2022-08-11T15:03:13.394Z,1.45
2022-08-11T15:05:57.733Z,1.30
2022-08-11T15:08:47.721Z,1.30
2022-08-11T15:11:47.433Z,1.42
2022-08-11T15:14:38.831Z,1.40
2022-08-11T15:17:10.243Z,1.40
2022-08-11T15:20:03.128Z,1.30
2022-08-11T15:22:49.809Z,1.50
2022-08-11T15:25:19.979Z,1.30
2022-08-11T15:28:09.203Z,1.30
2022-08-11T15:30:57.697Z,1.42
2022-08-11T15:33:47.574Z,1.40
2022-08-11T15:36:34.282Z,1.42
2022-08-11T15:39:08.071Z,1.50
2022-08-11T15:42:06.151Z,1.40
2022-08-11T15:45:04.083Z,1.23
2022-08-11T15:47:42.484Z,1.30
2022-08-11T15:50:16.027Z,1.40
2022-08-11T15:52:53.779Z,1.58
2022-08-11T15:55:24.622Z,1.58
2022-08-11T15:58:13.683Z,1.50
2022-08-11T16:01:04.436Z,1.25
2022-08-11T16:04:12.187Z,1.40
2022-08-11T16:06:47.599Z,1.42
2022-08-11T16:09:22.047Z,1.70
2022-08-11T16:11:53.647Z,1.63
2022-08-11T16:14:41.310Z,1.55
2022-08-11T16:17:13.076Z,1.60
2022-08-11T16:19:45.321Z,1.40
2022-08-11T16:22:16.239Z,1.67
2022-08-11T16:27:02.535Z,1.50
2022-08-11T16:27:41.734Z,1.60
2022-08-11T16:30:11.518Z,1.52
2022-08-11T16:32:43.137Z,1.52
2022-08-11T16:35:34.649Z,1.60
2022-08-11T16:38:22.097Z,1.73
2022-08-11T16:40:53.859Z,2.05
2022-08-11T16:43:44.174Z,2.00
2022-08-11T16:46:35.236Z,1.70
2022-08-11T16:49:07.454Z,1.80
2022-08-11T16:51:38.781Z,1.45
2022-08-11T16:54:08.779Z,1.60
2022-08-11T16:56:41.753Z,1.50
2022-08-11T16:59:17.580Z,1.73
2022-08-11T17:01:55.111Z,1.60
2022-08-11T17:04:48.801Z,1.50
2022-08-11T17:07:42.812Z,1.65
2022-08-11T17:10:50.783Z,1.70
2022-08-11T17:13:27.514Z,1.88
2022-08-11T17:16:12.965Z,1.67
2022-08-11T17:18:51.465Z,1.70
2022-08-11T17:21:23.291Z,1.80
2022-08-11T17:23:55.824Z,1.60
2022-08-11T17:26:49.816Z,1.75
2022-08-11T17:29:21.604Z,1.70
2022-08-11T17:32:08.456Z,2.00
2022-08-11T17:34:55.094Z,1.75
2022-08-11T17:37:25.787Z,1.92
2022-08-11T17:39:57.013Z,2.25
2022-08-11T17:42:46.091Z,2.80
2022-08-11T17:45:32.876Z,16.38
2022-08-11T17:48:20.275Z,3.17
2022-08-11T17:50:50.314Z,2.30
2022-08-11T17:53:37.469Z,3.45
2022-08-11T17:56:29.128Z,2.08
2022-08-11T17:59:17.843Z,1.92
2022-08-11T18:01:53.979Z,2.30
2022-08-11T18:04:25.745Z,2.40
2022-08-11T18:06:56.374Z,2.95
2022-08-11T18:09:42.828Z,2.33
2022-08-11T18:12:31.188Z,2.50
2022-08-11T18:15:17.999Z,2.00
2022-08-11T18:18:05.115Z,2.00
2022-08-11T18:20:52.236Z,2.15
2022-08-11T18:23:46.563Z,2.15
2022-08-11T18:26:38.221Z,2.20
2022-08-11T18:29:27.008Z,2.30
2022-08-11T18:32:21.274Z,2.30
2022-08-11T18:35:12.017Z,2.60
2022-08-11T18:38:05.725Z,2.40
2022-08-11T18:40:54.200Z,2.30
2022-08-11T18:43:43.149Z,2.50
2022-08-11T18:46:33.696Z,2.42
2022-08-11T18:49:26.603Z,2.40
2022-08-11T18:52:21.905Z,2.60
2022-08-11T18:55:08.683Z,2.40
2022-08-11T18:58:01.114Z,2.65
2022-08-11T19:00:48.194Z,2.40
2022-08-11T19:03:43.448Z,2.58
2022-08-11T19:06:40.820Z,2.45
2022-08-11T19:09:31.279Z,2.40
2022-08-11T19:12:18.955Z,2.58
2022-08-11T19:15:07.817Z,2.30
2022-08-11T19:17:56.996Z,2.53
2022-08-11T19:20:46.759Z,2.00
2022-08-11T19:23:37.627Z,2.60
2022-08-11T19:26:25.373Z,2.30
2022-08-11T19:30:11.038Z,2.38
2022-08-11T19:32:19.106Z,2.40
2022-08-11T19:35:06.419Z,2.65
2022-08-11T19:37:56.681Z,2.72
2022-08-11T19:40:43.339Z,2.53
2022-08-11T19:43:31.246Z,2.30
2022-08-11T19:46:20.490Z,2.63
2022-08-11T19:49:11.172Z,2.97
2022-08-11T19:51:58.348Z,2.75
2022-08-11T19:54:48.278Z,2.95
2022-08-11T19:57:39.528Z,2.70
2022-08-11T20:00:31.978Z,2.67
2022-08-11T20:03:19.092Z,2.30
2022-08-11T20:06:06.566Z,2.47
2022-08-11T20:08:57.825Z,2.40
2022-08-11T20:11:49.352Z,2.50
2022-08-11T20:14:36.753Z,2.50
2022-08-11T20:17:23.912Z,2.53
2022-08-11T20:20:11.069Z,3.08
2022-08-11T20:22:58.238Z,2.60
2022-08-11T20:25:46.098Z,2.67
2022-08-11T20:28:36.305Z,2.45
2022-08-11T20:31:24.384Z,2.50
2022-08-11T20:34:10.514Z,2.70
2022-08-11T20:36:57.556Z,3.40
2022-08-11T20:39:44.171Z,2.60
2022-08-11T20:42:31.438Z,2.53
2022-08-11T20:45:23.505Z,2.80
2022-08-11T20:51:19.851Z,5.50
2022-08-11T20:54:10.577Z,3.13
2022-08-11T20:56:58.365Z,2.87
2022-08-11T20:59:56.365Z,3.10
2022-08-11T21:02:45.856Z,2.83
2022-08-11T21:06:08.755Z,2.97
2022-08-11T21:08:47.930Z,2.97
2022-08-11T21:11:34.445Z,2.90
2022-08-11T21:14:23.928Z,2.70
2022-08-11T21:17:27.042Z,2.77
2022-08-11T21:20:22.715Z,3.00
2022-08-11T21:23:20.003Z,2.70
2022-08-11T21:26:15.574Z,2.70
2022-08-11T21:29:02.998Z,2.80
2022-08-11T21:31:51.650Z,2.73
2022-08-11T21:34:40.851Z,2.80
2022-08-11T21:37:31.017Z,3.00
2022-08-11T21:40:19.039Z,2.90
2022-08-11T21:43:07.533Z,2.80
2022-08-11T21:45:55.399Z,2.77
2022-08-11T21:48:42.553Z,3.17
2022-08-11T21:51:28.753Z,2.90
2022-08-11T21:54:18.359Z,3.17
2022-08-11T21:57:05.712Z,3.03
2022-08-11T22:00:00.842Z,2.97
2022-08-11T22:02:53.099Z,3.00
2022-08-11T22:05:40.790Z,2.80
2022-08-11T22:08:27.704Z,2.70
2022-08-11T22:11:15.879Z,2.97
2022-08-11T22:14:18.853Z,3.03
2022-08-11T22:17:04.812Z,3.10
2022-08-11T22:19:52.546Z,3.00
2022-08-11T22:22:51.290Z,3.10
2022-08-11T22:25:46.435Z,2.90
2022-08-11T22:28:39.808Z,3.10
2022-08-11T22:31:26.867Z,3.07
2022-08-11T22:34:13.143Z,3.13
2022-08-11T22:37:00.378Z,2.90
2022-08-11T22:40:02.266Z,2.93
2022-08-11T22:42:49.998Z,2.90
2022-08-11T22:45:38.226Z,3.10
2022-08-11T22:48:25.810Z,3.10
2022-08-11T22:51:13.634Z,3.20
2022-08-11T22:53:59.969Z,3.00
2022-08-11T22:56:46.534Z,2.97
2022-08-11T22:59:34.395Z,3.10
2022-08-11T23:02:22.772Z,3.00
2022-08-11T23:05:10.242Z,2.90
2022-08-11T23:07:57.676Z,3.10
2022-08-11T23:10:44.759Z,3.10
2022-08-11T23:13:31.298Z,3.50
2022-08-11T23:16:17.886Z,3.20
2022-08-11T23:19:06.891Z,3.10
2022-08-11T23:21:53.991Z,3.23
2022-08-11T23:24:41.620Z,2.90
2022-08-11T23:27:28.570Z,3.13
2022-08-11T23:30:19.050Z,3.20
2022-08-11T23:33:08.553Z,3.07
2022-08-11T23:36:03.299Z,3.10
2022-08-11T23:38:51.669Z,3.20
2022-08-11T23:41:38.575Z,3.50
2022-08-11T23:44:26.913Z,3.30
2022-08-11T23:47:15.693Z,3.30
2022-08-11T23:50:03.082Z,3.60
2022-08-11T23:52:52.471Z,3.20
2022-08-11T23:55:39.130Z,3.33
2022-08-11T23:58:25.199Z,3.50
